Terminal Aerodrome Forecast
Issued by NWS

Home | Current Version | Previous Version | Text Only | Print | Product List | Glossary On
Versions: 1 2 3 4 5 6 7 8 9 10 11 12
492
FTUS44 KBMX 230940 AAA
TAFTOI
TAF AMD
KTOI 230940Z 2310/2406 19005KT P6SM VCSH BKN050
     FM231200 24005KT P6SM VCSH OVC025
     FM231400 28008KT P6SM VCSH OVC015=

USA.gov is the U.S. government's official web portal to all federal, state and local government web resources and services.